Time;durP1;ratioP1;P1;durP2;ratioP2;P2;SDS_P1;SDS_P2;PMS_P1;PMS_P2;Temp;Humidity;BMP_temperature;BMP_pressure;BME280_temperature;BME280_humidity;BME280_pressure;Samples;Min_cycle;Max_cycle;Signal;HPM_P1;HPM_P2
2023/01/13 00:00:43;;;;;;;1.00;0.90;;;10.70;97.30;;;;;;4994051;28;20416;-86
2023/01/13 00:03:08;;;;;;;1.00;0.90;;;10.70;97.30;;;;;;5008709;28;20428;-85
2023/01/13 00:05:35;;;;;;;1.00;0.90;;;10.70;97.30;;;;;;4974024;28;20201;-87
2023/01/13 00:08:03;;;;;;;0.90;0.80;;;10.70;97.30;;;;;;4974643;28;20219;-86
2023/01/13 00:10:29;;;;;;;0.90;0.80;;;10.70;97.30;;;;;;4974679;28;20539;-87
2023/01/13 00:12:54;;;;;;;0.90;0.80;;;10.70;97.30;;;;;;4975480;28;20513;-84
2023/01/13 00:15:20;;;;;;;0.90;0.80;;;10.70;97.30;;;;;;4975038;28;20194;-86
2023/01/13 00:17:47;;;;;;;0.80;0.70;;;10.70;97.30;;;;;;4975149;28;20268;-85
2023/01/13 00:20:13;;;;;;;0.90;0.80;;;10.70;97.30;;;;;;4974405;28;20166;-85
2023/01/13 00:22:38;;;;;;;0.90;0.80;;;10.70;97.30;;;;;;4975025;28;20444;-87
2023/01/13 00:25:05;;;;;;;1.10;1.10;;;10.60;97.30;;;;;;4959072;28;20249;-85
2023/01/13 00:27:31;;;;;;;1.57;1.10;;;10.60;97.30;;;;;;4935949;29;20605;-86
2023/01/13 00:29:57;;;;;;;0.90;0.80;;;10.60;97.30;;;;;;4953491;29;20414;-86
2023/01/13 00:32:22;;;;;;;1.20;1.10;;;10.60;97.30;;;;;;4952712;29;20988;-87
2023/01/13 00:34:48;;;;;;;0.90;0.80;;;10.60;97.30;;;;;;4942058;28;20194;-86
2023/01/13 00:37:13;;;;;;;1.00;0.90;;;10.60;97.30;;;;;;4970721;28;20595;-87
2023/01/13 00:39:40;;;;;;;1.00;0.90;;;10.60;97.30;;;;;;4966599;28;20178;-86
2023/01/13 00:44:50;;;;;;;1.00;0.90;;;10.60;97.30;;;;;;4972946;28;20436;-87
2023/01/13 00:47:16;;;;;;;0.90;0.80;;;10.60;97.30;;;;;;4973259;28;20437;-86
2023/01/13 00:49:41;;;;;;;0.90;0.80;;;10.70;97.30;;;;;;4956239;28;20185;-84
2023/01/13 00:52:07;;;;;;;1.20;1.10;;;10.60;97.30;;;;;;4955174;28;20249;-86
2023/01/13 00:54:32;;;;;;;1.00;0.90;;;10.60;97.30;;;;;;4973015;28;20195;-85
2023/01/13 00:56:58;;;;;;;0.90;0.80;;;10.60;97.30;;;;;;4956284;28;20167;-84
2023/01/13 00:59:23;;;;;;;0.90;0.80;;;10.60;97.30;;;;;;4955287;28;20181;-87
2023/01/13 01:01:49;;;;;;;0.90;0.80;;;10.60;97.30;;;;;;4955515;28;20737;-85
2023/01/13 01:04:14;;;;;;;1.00;0.90;;;10.60;97.30;;;;;;4955281;28;20198;-85
2023/01/13 01:06:40;;;;;;;1.00;0.90;;;10.50;97.30;;;;;;4956449;28;20178;-87
2023/01/13 01:09:05;;;;;;;1.00;0.90;;;10.60;97.30;;;;;;4972874;28;20268;-86
2023/01/13 01:11:32;;;;;;;1.00;0.90;;;10.60;97.30;;;;;;4958895;28;20201;-85
2023/01/13 01:14:00;;;;;;;1.00;0.90;;;10.60;97.30;;;;;;4959522;28;20205;-85
2023/01/13 01:16:28;;;;;;;1.00;0.90;;;10.50;97.30;;;;;;4958854;28;20520;-86
2023/01/13 01:18:54;;;;;;;0.80;0.80;;;10.60;97.30;;;;;;4958182;28;20824;-86
2023/01/13 01:21:21;;;;;;;1.00;0.90;;;10.60;97.30;;;;;;4958740;28;20418;-86
2023/01/13 01:23:47;;;;;;;0.90;0.80;;;10.60;97.30;;;;;;4960046;28;20464;-85
2023/01/13 01:26:16;;;;;;;1.00;0.90;;;10.60;97.30;;;;;;4977244;28;20904;-87
2023/01/13 01:28:42;;;;;;;1.20;1.10;;;10.60;97.30;;;;;;4979820;28;20182;-87
2023/01/13 01:31:11;;;;;;;1.00;0.90;;;10.60;97.30;;;;;;4977420;28;20568;-86
2023/01/13 01:33:36;;;;;;;1.00;0.90;;;10.60;97.30;;;;;;4977094;28;20432;-87
2023/01/13 01:36:03;;;;;;;0.83;0.73;;;10.60;97.30;;;;;;4978992;28;21023;-87
2023/01/13 01:38:29;;;;;;;0.90;0.80;;;10.60;97.30;;;;;;4971935;28;20181;-88
2023/01/13 01:40:55;;;;;;;0.90;0.80;;;10.60;97.30;;;;;;4977589;28;20865;-86
2023/01/13 01:46:07;;;;;;;0.90;0.80;;;10.70;97.30;;;;;;4995576;28;20188;-86
2023/01/13 01:48:37;;;;;;;0.90;0.80;;;10.70;97.30;;;;;;4977582;28;20421;-86
2023/01/13 01:51:06;;;;;;;0.93;0.83;;;10.70;97.30;;;;;;4978059;28;20604;-84
2023/01/13 01:53:32;;;;;;;1.03;0.93;;;10.70;97.30;;;;;;4977941;28;20416;-86
2023/01/13 01:55:59;;;;;;;1.00;0.90;;;10.60;97.30;;;;;;4976446;28;20517;-87
2023/01/13 01:58:34;;;;;;;1.00;0.90;;;10.70;97.30;;;;;;4975917;28;20450;-85
2023/01/13 02:00:59;;;;;;;0.90;0.80;;;10.70;97.30;;;;;;4977795;28;20428;-85
2023/01/13 02:03:25;;;;;;;2.30;1.47;;;10.70;97.30;;;;;;4977752;28;20425;-85
2023/01/13 02:05:51;;;;;;;4.10;1.47;;;10.70;97.30;;;;;;4976695;28;20185;-84
2023/01/13 02:08:17;;;;;;;0.90;0.80;;;10.70;97.30;;;;;;4994544;28;20193;-85
2023/01/13 02:10:47;;;;;;;0.90;0.80;;;10.60;97.30;;;;;;4991286;28;21047;-86
2023/01/13 02:13:13;;;;;;;1.30;1.20;;;10.60;97.30;;;;;;4996882;28;20416;-85
2023/01/13 02:15:57;;;;;;;1.00;0.90;;;10.70;97.30;;;;;;4981143;28;20444;-85
2023/01/13 02:18:49;;;;;;;1.30;1.20;;;10.70;97.30;;;;;;4978892;28;20193;-86
2023/01/13 02:21:46;;;;;;;1.07;0.97;;;10.70;97.30;;;;;;4995425;28;20421;-87
2023/01/13 02:25:03;;;;;;;0.90;0.80;;;10.70;97.30;;;;;;4997836;28;20479;-86
2023/01/13 02:27:54;;;;;;;1.00;0.90;;;10.70;97.30;;;;;;5014505;28;20427;-86
2023/01/13 02:34:04;;;;;;;0.90;0.80;;;10.80;97.30;;;;;;5014721;28;20407;-87
2023/01/13 02:37:02;;;;;;;0.90;0.80;;;10.80;97.30;;;;;;4947358;28;20507;-86
2023/01/13 02:39:43;;;;;;;0.90;0.80;;;10.80;97.30;;;;;;4978296;28;20445;-85
2023/01/13 02:45:05;;;;;;;1.30;1.20;;;10.90;97.30;;;;;;4995080;28;20519;-87
2023/01/13 02:47:35;;;;;;;1.00;0.90;;;10.90;97.30;;;;;;4976508;28;20496;-85
2023/01/13 02:50:16;;;;;;;0.90;0.80;;;11.00;97.30;;;;;;4994223;28;20413;-86
2023/01/13 02:52:59;;;;;;;0.90;0.80;;;11.00;97.30;;;;;;4977519;28;20417;-87
2023/01/13 02:55:36;;;;;;;1.00;0.90;;;10.90;97.30;;;;;;4993128;28;20421;-86
2023/01/13 02:58:06;;;;;;;0.90;0.80;;;10.90;97.30;;;;;;4978764;28;20626;-86
2023/01/13 03:00:32;;;;;;;1.00;0.90;;;10.90;97.30;;;;;;4996554;28;20904;-88
2023/01/13 03:02:58;;;;;;;1.00;0.90;;;10.90;97.30;;;;;;5000374;28;20433;-86
2023/01/13 03:05:24;;;;;;;1.77;1.77;;;10.90;97.30;;;;;;5001298;28;20496;-87
2023/01/13 03:08:23;;;;;;;1.30;1.20;;;10.90;97.30;;;;;;4992960;28;20228;-87
2023/01/13 03:11:01;;;;;;;0.90;0.80;;;11.00;97.30;;;;;;4993209;28;20330;-87
2023/01/13 03:13:46;;;;;;;0.80;0.70;;;11.00;97.30;;;;;;4976389;28;20423;-88
2023/01/13 03:16:27;;;;;;;0.90;0.80;;;11.00;97.30;;;;;;4975462;28;20472;-86
2023/01/13 03:19:30;;;;;;;0.90;0.80;;;11.00;97.30;;;;;;4975861;28;20966;-86
2023/01/13 03:22:05;;;;;;;0.93;0.83;;;11.00;97.30;;;;;;4974839;28;20425;-86
2023/01/13 03:24:38;;;;;;;0.90;0.80;;;10.90;97.30;;;;;;4975039;28;20571;-87
2023/01/13 03:27:24;;;;;;;1.00;0.90;;;10.90;97.30;;;;;;4993271;28;20958;-87
2023/01/13 03:29:58;;;;;;;0.90;0.80;;;10.90;97.30;;;;;;4993793;28;20426;-86
2023/01/13 03:32:28;;;;;;;0.97;0.93;;;10.90;97.30;;;;;;5009136;28;20478;-85
2023/01/13 03:35:06;;;;;;;0.80;0.70;;;10.90;97.30;;;;;;4987403;28;20440;-86
2023/01/13 03:37:39;;;;;;;1.00;0.90;;;10.90;97.30;;;;;;4991569;28;20463;-86
2023/01/13 03:40:14;;;;;;;0.93;0.83;;;10.90;97.30;;;;;;4989820;28;20514;-85
2023/01/13 03:44:20;;;;;;;0.90;0.80;;;10.90;97.30;;;;;;5001330;28;20518;-84
2023/01/13 03:45:33;;;;;;;0.90;0.80;;;10.80;97.30;;;;;;5003489;28;20432;-83
2023/01/13 03:48:04;;;;;;;1.00;0.90;;;10.90;97.30;;;;;;5003548;28;20429;-84
2023/01/13 03:50:39;;;;;;;1.00;0.90;;;10.90;97.30;;;;;;4986538;28;20973;-84
2023/01/13 03:53:10;;;;;;;0.83;0.77;;;10.90;97.30;;;;;;5000349;28;20906;-84
2023/01/13 03:55:42;;;;;;;1.00;0.90;;;10.90;97.30;;;;;;4999490;28;20560;-86
2023/01/13 03:58:27;;;;;;;0.80;0.70;;;10.90;97.30;;;;;;4987104;28;20926;-85
2023/01/13 04:00:59;;;;;;;1.00;0.90;;;10.90;97.30;;;;;;4981016;28;20437;-85
2023/01/13 04:03:35;;;;;;;0.90;0.80;;;10.80;97.30;;;;;;4974375;28;20833;-84
2023/01/13 04:06:30;;;;;;;0.90;0.80;;;10.80;97.30;;;;;;4976378;28;20581;-86
2023/01/13 04:09:26;;;;;;;6.00;1.13;;;10.80;97.30;;;;;;4936916;28;20425;-85
2023/01/13 04:12:00;;;;;;;0.90;0.80;;;10.90;97.30;;;;;;4974538;28;20469;-84
2023/01/13 04:14:27;;;;;;;1.00;0.90;;;10.90;97.30;;;;;;4979995;28;20429;-84
2023/01/13 04:16:54;;;;;;;0.90;0.80;;;10.80;97.30;;;;;;4975957;28;20421;-86
2023/01/13 04:19:20;;;;;;;1.00;0.90;;;10.80;97.30;;;;;;4977024;28;20452;-86
2023/01/13 04:21:46;;;;;;;0.90;0.80;;;10.80;97.30;;;;;;4980033;28;20448;-84
2023/01/13 04:24:11;;;;;;;0.80;0.70;;;10.80;97.30;;;;;;4992497;28;20507;-85
2023/01/13 04:26:37;;;;;;;1.00;0.90;;;10.80;97.30;;;;;;4994303;28;20189;-85
2023/01/13 04:29:02;;;;;;;0.90;0.80;;;10.80;97.30;;;;;;4975561;28;20190;-84
2023/01/13 04:31:28;;;;;;;1.00;0.90;;;10.70;97.30;;;;;;4957161;28;20206;-85
2023/01/13 04:33:53;;;;;;;1.00;0.90;;;10.70;97.30;;;;;;4956746;28;20572;-82
2023/01/13 04:36:23;;;;;;;1.10;1.00;;;10.70;97.30;;;;;;4956511;28;20177;-85
2023/01/13 04:38:49;;;;;;;0.97;0.87;;;10.60;97.30;;;;;;4956499;28;20202;-86
2023/01/13 04:41:15;;;;;;;0.90;0.80;;;10.60;97.30;;;;;;4956701;28;20630;-84
2023/01/13 04:43:41;;;;;;;1.20;1.10;;;10.60;97.30;;;;;;4959266;28;20430;-84
2023/01/13 04:46:06;;;;;;;0.83;0.73;;;10.60;97.30;;;;;;4976978;28;20182;-85
2023/01/13 04:48:45;;;;;;;0.90;0.80;;;10.60;97.30;;;;;;4958505;28;20174;-84
2023/01/13 04:51:10;;;;;;;0.80;0.70;;;10.60;97.30;;;;;;4958605;28;20201;-85
2023/01/13 04:53:36;;;;;;;0.97;0.87;;;10.60;97.30;;;;;;4985676;28;20435;-86
2023/01/13 04:56:02;;;;;;;1.00;0.90;;;10.60;97.30;;;;;;4978161;28;20174;-85
2023/01/13 04:58:27;;;;;;;1.00;0.90;;;10.60;97.30;;;;;;4978455;28;20266;-83
2023/01/13 05:00:53;;;;;;;0.97;0.87;;;10.70;97.30;;;;;;4958600;28;20237;-85
2023/01/13 05:03:19;;;;;;;0.93;0.83;;;10.70;97.30;;;;;;4958429;28;20178;-84
2023/01/13 05:05:49;;;;;;;1.00;0.90;;;10.70;97.30;;;;;;4958900;28;20798;-85
2023/01/13 05:08:15;;;;;;;0.90;0.80;;;10.70;97.30;;;;;;4957671;28;20178;-86
2023/01/13 05:10:40;;;;;;;1.00;0.90;;;10.70;97.30;;;;;;4958122;28;21003;-84
2023/01/13 05:18:18;;;;;;;1.00;0.90;;;10.70;97.30;;;;;;4991793;28;20477;-85
2023/01/13 05:20:44;;;;;;;1.20;1.10;;;10.70;97.30;;;;;;4984319;28;20417;-86
2023/01/13 05:25:54;;;;;;;5.70;1.53;;;10.70;97.30;;;;;;5010464;28;20431;-84
2023/01/13 05:28:20;;;;;;;1.47;0.90;;;10.70;97.30;;;;;;4994179;28;20412;-87
2023/01/13 05:30:48;;;;;;;1.00;0.90;;;10.60;97.30;;;;;;4992663;28;20231;-85
2023/01/13 05:33:15;;;;;;;0.90;0.80;;;10.70;97.30;;;;;;4992123;28;20858;-85
2023/01/13 05:35:43;;;;;;;0.90;0.80;;;10.60;97.30;;;;;;5007286;28;20450;-85
2023/01/13 05:38:09;;;;;;;0.93;0.83;;;10.60;97.30;;;;;;5012716;28;20513;-87
2023/01/13 05:43:23;;;;;;;0.90;0.80;;;10.60;97.30;;;;;;5011651;28;20466;-85
2023/01/13 05:46:00;;;;;;;1.00;0.90;;;10.60;97.30;;;;;;5009769;28;20443;-86
2023/01/13 05:48:34;;;;;;;0.90;0.80;;;10.60;97.30;;;;;;4993470;28;20423;-84
2023/01/13 05:51:02;;;;;;;1.50;1.40;;;10.60;97.30;;;;;;4993569;28;20463;-85
2023/01/13 05:53:28;;;;;;;0.97;0.87;;;10.60;97.30;;;;;;4993243;28;20523;-85
2023/01/13 05:55:54;;;;;;;1.00;0.90;;;10.60;97.30;;;;;;5011680;28;20576;-86
2023/01/13 05:58:22;;;;;;;1.00;0.90;;;10.60;97.30;;;;;;5012986;28;20818;-84
2023/01/13 06:00:48;;;;;;;1.27;0.90;;;10.60;97.30;;;;;;4996646;28;20424;-85
2023/01/13 06:03:15;;;;;;;0.90;0.80;;;10.60;97.30;;;;;;5013195;28;20428;-87
2023/01/13 06:05:41;;;;;;;0.97;0.87;;;10.60;97.30;;;;;;5006235;28;21037;-86
2023/01/13 06:08:07;;;;;;;1.20;1.10;;;10.60;97.30;;;;;;5011538;28;20419;-85
2023/01/13 06:10:33;;;;;;;1.00;0.90;;;10.60;97.30;;;;;;5014202;28;20440;-88
2023/01/13 06:12:59;;;;;;;1.03;0.93;;;10.60;97.30;;;;;;5012385;28;20934;-85
2023/01/13 06:15:25;;;;;;;1.10;1.00;;;10.60;97.30;;;;;;5012993;28;20436;-84
2023/01/13 06:17:51;;;;;;;1.87;1.17;;;10.60;97.30;;;;;;5012823;28;20228;-85
2023/01/13 06:20:17;;;;;;;1.47;1.37;;;10.60;97.30;;;;;;5012999;28;20508;-85
2023/01/13 06:22:45;;;;;;;0.90;0.80;;;10.60;97.30;;;;;;5012571;28;20287;-86
2023/01/13 06:25:46;;;;;;;1.00;0.90;;;10.60;97.30;;;;;;5012452;28;20201;-85
2023/01/13 06:28:12;;;;;;;1.10;1.00;;;10.60;97.30;;;;;;5011908;28;20420;-86
2023/01/13 06:30:47;;;;;;;1.00;0.90;;;10.60;97.30;;;;;;5012438;28;20474;-85
2023/01/13 06:33:16;;;;;;;0.90;0.80;;;10.60;97.30;;;;;;5012490;28;20177;-84
2023/01/13 06:35:48;;;;;;;0.90;0.80;;;10.60;97.30;;;;;;5012537;28;20544;-86
2023/01/13 06:38:16;;;;;;;1.00;0.90;;;10.50;97.30;;;;;;5013490;28;20438;-88
2023/01/13 06:40:42;;;;;;;0.90;0.80;;;10.40;97.30;;;;;;5015320;28;20933;-85
2023/01/13 06:43:14;;;;;;;1.00;0.90;;;10.40;97.30;;;;;;5031845;28;20411;-85
2023/01/13 06:45:42;;;;;;;0.90;0.80;;;10.40;97.30;;;;;;5031984;28;20861;-85
2023/01/13 06:48:07;;;;;;;1.13;1.03;;;10.40;97.30;;;;;;5014989;28;20429;-86
2023/01/13 06:50:33;;;;;;;1.27;1.17;;;10.40;97.30;;;;;;5031110;28;20419;-88
2023/01/13 06:52:58;;;;;;;1.00;0.90;;;10.40;97.30;;;;;;5032307;28;20260;-85
2023/01/13 06:55:24;;;;;;;1.10;1.00;;;10.30;97.30;;;;;;5033328;28;20670;-86
2023/01/13 06:57:52;;;;;;;1.00;0.90;;;10.00;97.30;;;;;;5016879;28;20172;-85
2023/01/13 07:00:18;;;;;;;2.33;1.00;;;9.70;97.30;;;;;;5034066;28;20565;-88
2023/01/13 07:02:44;;;;;;;1.00;0.90;;;9.50;97.30;;;;;;5014986;28;20424;-85
2023/01/13 07:05:10;;;;;;;0.90;0.80;;;9.20;97.30;;;;;;5031144;28;20442;-85
2023/01/13 07:07:35;;;;;;;2.37;2.17;;;9.10;97.30;;;;;;5029809;28;20264;-86
2023/01/13 07:10:02;;;;;;;1.00;0.90;;;8.90;97.30;;;;;;5014487;28;20767;-85
2023/01/13 07:12:27;;;;;;;1.00;0.90;;;8.80;97.30;;;;;;5029934;28;20264;-87
2023/01/13 07:17:37;;;;;;;1.00;0.90;;;8.60;97.30;;;;;;5031583;28;20814;-88
2023/01/13 07:20:02;;;;;;;0.93;0.83;;;8.60;97.30;;;;;;5024428;28;20455;-85
2023/01/13 07:22:28;;;;;;;1.00;0.90;;;8.50;97.30;;;;;;4993307;28;20188;-85
2023/01/13 07:24:54;;;;;;;1.03;0.93;;;8.50;97.30;;;;;;4994053;28;20650;-85
2023/01/13 07:27:19;;;;;;;2.60;2.40;;;8.40;97.30;;;;;;4994917;28;20618;-88
2023/01/13 07:29:47;;;;;;;1.00;0.90;;;8.40;97.30;;;;;;4995127;28;20181;-85
2023/01/13 07:32:14;;;;;;;0.90;0.80;;;8.30;97.30;;;;;;4994936;28;20213;-85
2023/01/13 07:34:40;;;;;;;1.00;0.90;;;8.30;97.30;;;;;;5000621;28;20465;-87
2023/01/13 07:37:05;;;;;;;1.00;0.90;;;8.30;97.30;;;;;;5014828;28;20443;-86
2023/01/13 07:39:31;;;;;;;1.10;1.00;;;8.30;97.30;;;;;;5031234;28;20190;-86
2023/01/13 07:44:43;;;;;;;1.00;0.90;;;8.20;97.30;;;;;;5032567;28;20744;-87
2023/01/13 07:47:10;;;;;;;1.37;1.27;;;8.20;97.30;;;;;;5014315;28;20427;-86
2023/01/13 07:49:35;;;;;;;1.40;1.30;;;8.20;97.30;;;;;;5030896;28;20617;-87
2023/01/13 07:52:01;;;;;;;1.10;1.00;;;8.20;97.30;;;;;;5032300;28;20483;-90
2023/01/13 07:54:26;;;;;;;1.10;1.00;;;8.20;97.30;;;;;;5031659;28;20259;-85
2023/01/13 07:56:55;;;;;;;1.00;0.90;;;8.20;97.30;;;;;;5030945;28;20271;-85
2023/01/13 07:59:20;;;;;;;1.00;0.90;;;8.20;97.30;;;;;;5014754;28;20550;-86
2023/01/13 08:01:46;;;;;;;1.10;1.00;;;8.20;97.30;;;;;;5030638;28;20454;-85
2023/01/13 08:04:11;;;;;;;1.00;0.90;;;8.20;97.30;;;;;;5031005;28;20183;-86
2023/01/13 08:06:39;;;;;;;1.13;1.03;;;8.20;97.30;;;;;;5030855;28;20197;-86
2023/01/13 08:09:05;;;;;;;1.10;1.00;;;8.20;97.30;;;;;;5014583;28;20242;-88
2023/01/13 08:11:30;;;;;;;1.07;0.97;;;8.10;97.30;;;;;;5030480;28;20701;-86
2023/01/13 08:13:56;;;;;;;1.10;1.00;;;8.10;97.30;;;;;;5014245;28;20179;-85
2023/01/13 08:16:22;;;;;;;1.00;0.90;;;8.10;97.30;;;;;;5020592;23;20726;-85
2023/01/13 08:19:00;;;;;;;1.00;0.90;;;8.10;97.30;;;;;;5014080;28;20451;-85
2023/01/13 08:21:32;;;;;;;1.00;0.90;;;8.10;97.30;;;;;;5030465;28;20505;-85
2023/01/13 08:24:11;;;;;;;1.00;0.90;;;8.00;97.30;;;;;;5013714;28;20418;-86
2023/01/13 08:26:42;;;;;;;1.10;1.00;;;8.00;97.30;;;;;;5013518;28;20481;-85
2023/01/13 08:29:20;;;;;;;2.60;1.10;;;8.00;97.30;;;;;;5013730;28;20414;-85
2023/01/13 08:31:51;;;;;;;1.00;0.90;;;8.00;97.30;;;;;;5030262;28;20995;-85
2023/01/13 08:34:20;;;;;;;1.10;1.00;;;8.00;97.30;;;;;;5014069;28;20416;-86
2023/01/13 08:37:13;;;;;;;1.10;1.00;;;8.00;97.30;;;;;;5013745;28;20431;-88
2023/01/13 08:39:41;;;;;;;1.13;1.03;;;8.00;97.30;;;;;;5013651;28;20466;-85
2023/01/13 08:42:12;;;;;;;1.30;1.20;;;8.00;97.30;;;;;;5012823;28;20458;-87
2023/01/13 08:44:42;;;;;;;1.37;1.27;;;8.00;97.30;;;;;;5013565;28;20832;-85
2023/01/13 08:47:10;;;;;;;1.13;1.03;;;8.00;97.30;;;;;;5014053;28;20445;-87
2023/01/13 08:49:39;;;;;;;1.10;1.00;;;8.00;97.30;;;;;;5013369;28;20431;-85
2023/01/13 08:52:12;;;;;;;6.10;1.30;;;8.00;97.30;;;;;;5013403;28;20467;-85
2023/01/13 08:54:41;;;;;;;1.20;1.10;;;8.00;97.30;;;;;;5013952;28;21028;-85
2023/01/13 08:57:29;;;;;;;1.17;1.07;;;8.00;97.30;;;;;;5031171;28;20411;-87
2023/01/13 09:00:11;;;;;;;5.20;2.73;;;8.00;97.30;;;;;;5031149;28;20411;-85
2023/01/13 09:02:39;;;;;;;1.27;1.17;;;8.00;97.30;;;;;;5013755;28;20419;-87
2023/01/13 09:05:28;;;;;;;1.00;0.90;;;8.00;97.30;;;;;;5013433;28;20438;-86
2023/01/13 09:08:01;;;;;;;0.90;0.80;;;8.00;97.30;;;;;;4999202;28;20937;-86
2023/01/13 09:10:27;;;;;;;1.20;1.10;;;8.00;97.30;;;;;;5013516;28;20855;-87
2023/01/13 09:13:10;;;;;;;1.97;1.57;;;8.00;97.30;;;;;;5013617;28;20457;-86
2023/01/13 09:15:36;;;;;;;1.30;1.20;;;8.00;97.30;;;;;;5030811;28;20488;-87
2023/01/13 09:18:02;;;;;;;1.00;0.90;;;8.00;97.30;;;;;;5013263;28;20427;-86
2023/01/13 09:20:27;;;;;;;1.10;1.00;;;8.00;97.30;;;;;;5013167;28;20554;-86
2023/01/13 09:22:53;;;;;;;0.90;0.80;;;7.90;97.30;;;;;;5013414;28;20176;-85
2023/01/13 09:25:18;;;;;;;1.20;1.10;;;8.00;97.30;;;;;;5013629;28;20226;-86
2023/01/13 09:27:44;;;;;;;1.00;0.90;;;8.00;97.30;;;;;;5013477;28;20184;-85
2023/01/13 09:30:10;;;;;;;1.47;1.37;;;8.00;97.30;;;;;;5014128;28;20236;-85
2023/01/13 09:32:37;;;;;;;2.30;1.60;;;8.00;97.30;;;;;;5017552;28;20341;-88
2023/01/13 09:35:03;;;;;;;1.00;0.90;;;8.00;97.30;;;;;;5017221;28;20439;-86
2023/01/13 09:37:30;;;;;;;1.00;0.90;;;8.00;97.30;;;;;;5033495;28;20415;-86
2023/01/13 09:39:56;;;;;;;1.00;0.90;;;8.00;97.30;;;;;;5035093;28;20498;-91
2023/01/13 09:45:45;;;;;;;1.40;1.30;;;8.00;97.30;;;;;;5034694;28;20265;-88
2023/01/13 09:48:17;;;;;;;1.10;1.00;;;8.00;97.30;;;;;;5033215;28;20485;-88
2023/01/13 09:51:01;;;;;;;1.20;1.10;;;8.00;97.30;;;;;;5033287;28;20534;-85
2023/01/13 09:53:39;;;;;;;1.00;0.90;;;8.00;97.30;;;;;;5016121;28;20427;-87
2023/01/13 09:56:05;;;;;;;1.73;1.63;;;8.10;97.30;;;;;;5016561;28;20465;-85
2023/01/13 09:58:31;;;;;;;1.20;1.10;;;8.10;97.30;;;;;;5017058;28;20925;-86
2023/01/13 10:01:16;;;;;;;1.53;1.10;;;8.10;97.30;;;;;;5016656;28;20430;-86
2023/01/13 10:03:41;;;;;;;1.53;1.43;;;8.10;97.30;;;;;;5016912;28;20426;-86
2023/01/13 10:06:32;;;;;;;3.00;1.10;;;8.10;97.30;;;;;;5016943;28;20979;-85
2023/01/13 10:08:58;;;;;;;1.53;1.43;;;8.10;97.30;;;;;;5016315;28;20184;-86
2023/01/13 10:14:30;;;;;;;1.40;1.30;;;8.20;97.30;;;;;;5034801;28;20179;-85
2023/01/13 10:17:26;;;;;;;1.10;1.00;;;8.20;97.30;;;;;;5016406;28;20900;-87
2023/01/13 10:20:02;;;;;;;1.20;1.10;;;8.30;97.30;;;;;;5016295;28;21001;-85
2023/01/13 10:22:44;;;;;;;1.37;1.37;;;8.30;97.30;;;;;;5016368;28;20418;-85
2023/01/13 10:25:23;;;;;;;1.27;1.17;;;8.30;97.30;;;;;;5016197;28;20541;-88
2023/01/13 10:27:52;;;;;;;1.10;1.00;;;8.30;97.30;;;;;;5016339;28;20789;-85
2023/01/13 10:30:30;;;;;;;0.90;0.80;;;8.40;97.30;;;;;;5016066;28;20929;-87
2023/01/13 10:32:58;;;;;;;0.97;0.87;;;8.60;97.30;;;;;;5035012;28;20522;-86
2023/01/13 10:35:46;;;;;;;1.10;1.00;;;8.70;97.30;;;;;;5016060;28;20707;-85
2023/01/13 10:38:25;;;;;;;1.10;1.00;;;8.90;97.30;;;;;;5032432;28;20447;-86
2023/01/13 10:40:54;;;;;;;1.13;1.03;;;9.00;97.30;;;;;;5032351;28;20415;-85
2023/01/13 10:43:20;;;;;;;1.10;1.00;;;9.20;97.30;;;;;;5031478;28;20501;-86
2023/01/13 10:46:03;;;;;;;1.10;1.00;;;9.30;97.30;;;;;;5015649;28;20435;-86
2023/01/13 10:48:33;;;;;;;1.37;1.27;;;9.40;97.30;;;;;;5015918;28;20709;-85
2023/01/13 10:51:09;;;;;;;1.00;0.90;;;9.40;97.30;;;;;;5031892;28;20490;-88
2023/01/13 10:54:03;;;;;;;1.10;1.00;;;9.40;97.30;;;;;;5015702;28;20422;-86
2023/01/13 10:56:32;;;;;;;1.07;0.97;;;9.40;97.30;;;;;;4998100;28;20532;-86
2023/01/13 10:59:15;;;;;;;0.90;0.80;;;9.30;97.30;;;;;;5032167;28;20574;-85
2023/01/13 11:01:50;;;;;;;1.00;0.90;;;9.40;97.30;;;;;;5015372;28;20427;-86
2023/01/13 11:04:25;;;;;;;1.00;0.90;;;9.50;97.30;;;;;;5032234;28;20423;-85
2023/01/13 11:06:50;;;;;;;1.00;0.90;;;9.50;97.30;;;;;;5015093;28;20427;-85
2023/01/13 11:09:19;;;;;;;0.97;0.87;;;9.60;97.30;;;;;;5003407;28;20800;-87
2023/01/13 11:11:47;;;;;;;1.00;0.90;;;9.70;97.30;;;;;;5011311;28;20683;-88
2023/01/13 11:14:40;;;;;;;1.20;1.10;;;9.80;97.30;;;;;;4995748;28;20420;-86
2023/01/13 11:17:17;;;;;;;3.23;0.90;;;9.80;97.30;;;;;;5008497;23;20495;-90
2023/01/13 11:19:52;;;;;;;1.10;1.00;;;9.90;97.30;;;;;;4992436;28;20850;-90
2023/01/13 11:22:28;;;;;;;1.00;0.90;;;9.90;97.30;;;;;;4992452;28;20459;-90
2023/01/13 11:25:04;;;;;;;0.90;0.80;;;10.00;97.30;;;;;;4992437;28;20437;-91
2023/01/13 11:27:59;;;;;;;1.13;1.03;;;10.00;97.30;;;;;;4972800;28;20433;-90
2023/01/13 11:30:25;;;;;;;1.00;0.90;;;9.90;97.30;;;;;;4993389;28;20457;-90
2023/01/13 11:33:08;;;;;;;0.90;0.80;;;9.90;97.30;;;;;;4972460;28;20470;-91
2023/01/13 11:35:40;;;;;;;0.90;0.80;;;10.00;97.30;;;;;;4972654;28;20548;-91
2023/01/13 11:38:27;;;;;;;1.00;0.90;;;10.00;97.30;;;;;;4973472;28;20822;-91
2023/01/13 11:40:56;;;;;;;1.10;1.00;;;10.20;97.30;;;;;;4988868;28;20507;-90
2023/01/13 11:43:33;;;;;;;1.00;0.90;;;10.30;97.30;;;;;;4972216;28;20796;-90
2023/01/13 11:46:00;;;;;;;1.03;0.93;;;10.40;97.30;;;;;;4972090;28;20441;-92
2023/01/13 11:48:28;;;;;;;1.10;1.00;;;10.50;97.30;;;;;;4987911;28;20438;-91
2023/01/13 11:51:06;;;;;;;1.23;1.13;;;10.60;97.30;;;;;;4972522;28;20453;-90
2023/01/13 11:53:53;;;;;;;1.17;1.13;;;10.80;97.20;;;;;;4958367;28;20425;-90
2023/01/13 11:56:54;;;;;;;1.00;0.90;;;10.90;97.00;;;;;;4973583;28;20436;-92
2023/01/13 11:59:42;;;;;;;1.20;1.10;;;10.80;96.30;;;;;;4988238;28;20556;-91
2023/01/13 12:02:33;;;;;;;1.00;0.90;;;10.80;96.30;;;;;;4956069;28;20434;-90
2023/01/13 12:05:17;;;;;;;1.30;1.23;;;10.80;95.20;;;;;;4972136;28;20429;-90
2023/01/13 12:08:02;;;;;;;1.00;0.90;;;11.00;95.50;;;;;;4980174;28;20846;-90
2023/01/13 12:10:43;;;;;;;4.30;1.40;;;11.10;94.40;;;;;;4955811;28;20430;-90
2023/01/13 12:13:29;;;;;;;1.00;0.90;;;11.10;94.20;;;;;;4956147;28;20425;-90
2023/01/13 12:16:14;;;;;;;1.90;1.20;;;11.20;93.80;;;;;;4987653;28;20509;-91
2023/01/13 12:19:06;;;;;;;1.73;1.10;;;11.30;93.80;;;;;;4955449;28;20485;-90
2023/01/13 12:21:37;;;;;;;0.90;0.80;;;11.40;92.80;;;;;;4955752;28;20432;-91
2023/01/13 12:24:36;;;;;;;1.00;0.90;;;11.30;92.50;;;;;;4971917;28;20818;-90
2023/01/13 12:27:19;;;;;;;1.20;1.10;;;11.00;92.70;;;;;;4972097;28;20437;-90
2023/01/13 12:29:47;;;;;;;0.90;0.80;;;10.80;93.60;;;;;;4955142;28;20422;-90
2023/01/13 12:32:23;;;;;;;0.90;0.80;;;10.60;93.40;;;;;;4970675;28;20468;-90
2023/01/13 12:35:07;;;;;;;1.10;1.00;;;10.50;93.80;;;;;;4970832;28;20933;-90
2023/01/13 12:37:51;;;;;;;0.90;0.80;;;10.40;94.30;;;;;;4970988;28;20921;-90
2023/01/13 12:40:46;;;;;;;1.00;0.90;;;10.30;94.50;;;;;;4971415;28;20505;-90
2023/01/13 12:46:21;;;;;;;0.90;0.80;;;10.10;96.30;;;;;;4972941;28;20501;-92
2023/01/13 12:48:56;;;;;;;0.90;0.80;;;10.10;96.50;;;;;;4972334;28;20433;-90
2023/01/13 12:51:36;;;;;;;0.93;0.83;;;10.00;96.70;;;;;;4975017;28;20499;-91
2023/01/13 12:54:23;;;;;;;1.00;0.90;;;9.90;97.30;;;;;;4974303;28;20991;-91
2023/01/13 12:56:49;;;;;;;25.53;1.43;;;9.80;97.30;;;;;;4974323;28;20438;-92
2023/01/13 12:59:17;;;;;;;1.00;0.90;;;9.70;97.30;;;;;;4973639;28;20521;-90
2023/01/13 13:01:47;;;;;;;1.00;0.90;;;9.60;97.30;;;;;;4965350;28;20274;-90
2023/01/13 13:04:19;;;;;;;1.20;1.10;;;9.60;97.30;;;;;;4962271;28;20476;-90
2023/01/13 13:06:52;;;;;;;1.10;1.00;;;9.70;97.30;;;;;;4942156;29;21011;-91
2023/01/13 13:09:29;;;;;;;0.90;0.80;;;9.80;97.30;;;;;;4956508;29;20442;-89
2023/01/13 13:14:38;;;;;;;1.70;1.60;;;10.30;97.30;;;;;;4960351;29;20418;-91
2023/01/13 13:17:28;;;;;;;4.60;1.57;;;10.70;97.30;;;;;;4942203;29;20470;-89
2023/01/13 13:19:56;;;;;;;9.80;1.00;;;11.10;96.60;;;;;;4940540;29;20952;-90
2023/01/13 13:22:33;;;;;;;1.47;1.43;;;11.40;94.60;;;;;;4943738;29;20441;-89
2023/01/13 13:25:20;;;;;;;1.80;1.70;;;11.50;92.90;;;;;;4958342;28;20473;-92
2023/01/13 13:28:09;;;;;;;1.10;1.00;;;11.60;94.50;;;;;;4941353;29;20426;-90
2023/01/13 13:30:38;;;;;;;1.00;0.90;;;11.60;96.30;;;;;;4957070;28;20422;-90
2023/01/13 13:33:23;;;;;;;1.07;0.97;;;11.20;97.10;;;;;;4940659;29;20478;-91
2023/01/13 13:36:26;;;;;;;0.90;0.80;;;10.60;97.30;;;;;;4949231;29;20442;-91
2023/01/13 13:47:38;;;;;;;1.50;1.00;;;10.00;97.30;;;;;;4957410;28;20402;-89
2023/01/13 13:50:07;;;;;;;1.00;0.90;;;10.30;97.30;;;;;;4943942;29;20439;-89
2023/01/13 13:52:50;;;;;;;1.20;1.10;;;10.30;97.30;;;;;;4953542;28;20465;-89
2023/01/13 13:55:19;;;;;;;4.23;2.50;;;10.10;97.30;;;;;;4938818;29;20694;-87
2023/01/13 13:57:50;;;;;;;0.93;0.83;;;10.00;97.10;;;;;;4971198;28;20436;-90
2023/01/13 14:00:16;;;;;;;1.00;0.90;;;10.00;97.00;;;;;;4942499;29;20930;-90
2023/01/13 14:02:55;;;;;;;1.20;1.10;;;10.40;95.10;;;;;;4942963;29;20430;-90
2023/01/13 14:05:22;;;;;;;0.90;0.80;;;10.70;94.20;;;;;;4952256;29;20435;-89